sensor_id;sensor_type;location;lat;lon;timestamp;pressure;altitude;pressure_sealevel;temperature;humidity
37972;BME280;23794;48.234;8.344;2024-02-26T00:00:30;92352.75;;;4.65;57.63
37972;BME280;23794;48.234;8.344;2024-02-26T00:02:56;92355.72;;;4.74;56.93
37972;BME280;23794;48.234;8.344;2024-02-26T00:05:23;92366.94;;;4.76;58.78
37972;BME280;23794;48.234;8.344;2024-02-26T00:07:50;92365.44;;;4.71;60.63
37972;BME280;23794;48.234;8.344;2024-02-26T00:10:16;92362.72;;;4.71;60.70
37972;BME280;23794;48.234;8.344;2024-02-26T00:12:43;92365.06;;;4.73;60.58
37972;BME280;23794;48.234;8.344;2024-02-26T00:15:10;92359.31;;;4.67;60.31
37972;BME280;23794;48.234;8.344;2024-02-26T00:17:37;92362.03;;;4.67;60.40
37972;BME280;23794;48.234;8.344;2024-02-26T00:20:05;92370.16;;;4.67;60.92
37972;BME280;23794;48.234;8.344;2024-02-26T00:22:35;92374.75;;;4.70;61.53
37972;BME280;23794;48.234;8.344;2024-02-26T00:25:02;92385.16;;;4.76;61.14
37972;BME280;23794;48.234;8.344;2024-02-26T00:27:30;92392.13;;;4.77;61.47
37972;BME280;23794;48.234;8.344;2024-02-26T00:29:57;92383.75;;;4.64;63.29
37972;BME280;23794;48.234;8.344;2024-02-26T00:32:25;92387.97;;;4.68;62.03
37972;BME280;23794;48.234;8.344;2024-02-26T00:34:51;92388.72;;;4.69;61.49
37972;BME280;23794;48.234;8.344;2024-02-26T00:37:18;92393.66;;;4.78;60.27
37972;BME280;23794;48.234;8.344;2024-02-26T00:39:45;92390.59;;;4.76;60.18
37972;BME280;23794;48.234;8.344;2024-02-26T00:42:13;92396.09;;;4.68;62.24
37972;BME280;23794;48.234;8.344;2024-02-26T00:44:39;92387.94;;;4.72;60.63
37972;BME280;23794;48.234;8.344;2024-02-26T00:47:06;92397.13;;;4.78;59.89
37972;BME280;23794;48.234;8.344;2024-02-26T00:49:33;92402.88;;;4.84;60.64
37972;BME280;23794;48.234;8.344;2024-02-26T00:51:59;92403.69;;;4.81;61.51
37972;BME280;23794;48.234;8.344;2024-02-26T00:54:26;92400.66;;;4.75;61.33
37972;BME280;23794;48.234;8.344;2024-02-26T00:56:52;92399.53;;;4.72;61.47
37972;BME280;23794;48.234;8.344;2024-02-26T00:59:19;92389.81;;;4.75;60.83
37972;BME280;23794;48.234;8.344;2024-02-26T01:01:46;92392.19;;;4.73;61.45
37972;BME280;23794;48.234;8.344;2024-02-26T01:04:12;92384.78;;;4.74;60.45
37972;BME280;23794;48.234;8.344;2024-02-26T01:06:39;92384.13;;;4.66;61.79
37972;BME280;23794;48.234;8.344;2024-02-26T01:09:06;92384.09;;;4.69;61.03
37972;BME280;23794;48.234;8.344;2024-02-26T01:11:32;92384.75;;;4.77;60.47
37972;BME280;23794;48.234;8.344;2024-02-26T01:13:59;92377.41;;;4.78;60.56
37972;BME280;23794;48.234;8.344;2024-02-26T01:16:26;92383.31;;;4.69;62.61
37972;BME280;23794;48.234;8.344;2024-02-26T01:18:55;92385.91;;;4.76;61.56
37972;BME280;23794;48.234;8.344;2024-02-26T01:21:22;92392.63;;;4.68;62.58
37972;BME280;23794;48.234;8.344;2024-02-26T01:23:48;92387.13;;;4.71;61.71
37972;BME280;23794;48.234;8.344;2024-02-26T01:26:15;92402.34;;;4.65;61.68
37972;BME280;23794;48.234;8.344;2024-02-26T01:28:41;92403.56;;;4.61;62.21
37972;BME280;23794;48.234;8.344;2024-02-26T01:31:09;92398.00;;;4.71;60.89
37972;BME280;23794;48.234;8.344;2024-02-26T01:33:36;92398.31;;;4.77;59.77
37972;BME280;23794;48.234;8.344;2024-02-26T01:36:03;92401.13;;;4.70;60.92
37972;BME280;23794;48.234;8.344;2024-02-26T01:38:30;92390.69;;;4.68;62.24
37972;BME280;23794;48.234;8.344;2024-02-26T01:40:57;92391.13;;;4.63;64.19
37972;BME280;23794;48.234;8.344;2024-02-26T01:43:23;92396.59;;;4.60;63.76
37972;BME280;23794;48.234;8.344;2024-02-26T01:45:50;92392.09;;;4.49;65.97
37972;BME280;23794;48.234;8.344;2024-02-26T01:48:17;92389.94;;;4.33;65.45
37972;BME280;23794;48.234;8.344;2024-02-26T01:50:43;92392.00;;;4.22;66.99
37972;BME280;23794;48.234;8.344;2024-02-26T01:53:10;92395.09;;;4.24;68.16
37972;BME280;23794;48.234;8.344;2024-02-26T01:55:37;92388.03;;;4.30;67.12
37972;BME280;23794;48.234;8.344;2024-02-26T01:58:06;92398.94;;;4.27;68.67
37972;BME280;23794;48.234;8.344;2024-02-26T02:00:33;92398.63;;;4.17;68.43
37972;BME280;23794;48.234;8.344;2024-02-26T02:03:01;92390.47;;;4.21;68.42
37972;BME280;23794;48.234;8.344;2024-02-26T02:05:30;92384.28;;;4.20;69.85
37972;BME280;23794;48.234;8.344;2024-02-26T02:07:57;92375.00;;;4.18;69.43
37972;BME280;23794;48.234;8.344;2024-02-26T02:10:25;92370.28;;;4.26;68.97
37972;BME280;23794;48.234;8.344;2024-02-26T02:12:52;92375.69;;;4.26;69.36
37972;BME280;23794;48.234;8.344;2024-02-26T02:15:19;92373.72;;;4.30;68.86
37972;BME280;23794;48.234;8.344;2024-02-26T02:17:46;92373.00;;;4.26;70.08
37972;BME280;23794;48.234;8.344;2024-02-26T02:20:17;92372.25;;;4.21;70.71
37972;BME280;23794;48.234;8.344;2024-02-26T02:22:45;92371.09;;;4.22;70.66
37972;BME280;23794;48.234;8.344;2024-02-26T02:25:12;92358.34;;;4.19;71.61
37972;BME280;23794;48.234;8.344;2024-02-26T02:27:40;92353.41;;;4.11;72.16
37972;BME280;23794;48.234;8.344;2024-02-26T02:30:07;92365.75;;;4.15;71.49
37972;BME280;23794;48.234;8.344;2024-02-26T02:32:37;92354.88;;;4.19;70.55
37972;BME280;23794;48.234;8.344;2024-02-26T02:35:05;92362.28;;;4.15;70.60
37972;BME280;23794;48.234;8.344;2024-02-26T02:37:32;92367.31;;;4.13;70.67
37972;BME280;23794;48.234;8.344;2024-02-26T02:39:58;92350.34;;;4.08;73.75
37972;BME280;23794;48.234;8.344;2024-02-26T02:42:26;92358.88;;;4.07;74.42
37972;BME280;23794;48.234;8.344;2024-02-26T02:44:53;92368.63;;;4.01;76.73
37972;BME280;23794;48.234;8.344;2024-02-26T02:47:19;92362.44;;;4.00;75.82
37972;BME280;23794;48.234;8.344;2024-02-26T02:49:46;92367.13;;;3.96;75.91
37972;BME280;23794;48.234;8.344;2024-02-26T02:52:13;92361.69;;;3.96;76.18
37972;BME280;23794;48.234;8.344;2024-02-26T02:54:39;92358.25;;;3.92;78.28
37972;BME280;23794;48.234;8.344;2024-02-26T02:57:08;92341.53;;;4.01;76.42
37972;BME280;23794;48.234;8.344;2024-02-26T02:59:37;92350.78;;;4.03;76.96
37972;BME280;23794;48.234;8.344;2024-02-26T03:02:04;92351.41;;;4.18;76.80
37972;BME280;23794;48.234;8.344;2024-02-26T03:04:31;92354.59;;;4.10;77.39
37972;BME280;23794;48.234;8.344;2024-02-26T03:06:58;92358.53;;;4.05;77.78
37972;BME280;23794;48.234;8.344;2024-02-26T03:09:25;92360.47;;;4.01;78.55
37972;BME280;23794;48.234;8.344;2024-02-26T03:11:51;92357.66;;;4.12;77.18
37972;BME280;23794;48.234;8.344;2024-02-26T03:14:18;92357.81;;;3.97;79.30
37972;BME280;23794;48.234;8.344;2024-02-26T03:16:45;92359.72;;;4.00;78.41
37972;BME280;23794;48.234;8.344;2024-02-26T03:19:14;92362.00;;;4.05;77.97
37972;BME280;23794;48.234;8.344;2024-02-26T03:21:42;92364.75;;;4.02;77.93
37972;BME280;23794;48.234;8.344;2024-02-26T03:24:09;92353.94;;;3.98;78.09
37972;BME280;23794;48.234;8.344;2024-02-26T03:26:37;92351.72;;;3.89;79.10
37972;BME280;23794;48.234;8.344;2024-02-26T03:29:04;92355.19;;;3.90;80.88
37972;BME280;23794;48.234;8.344;2024-02-26T03:31:31;92357.06;;;3.97;79.42
37972;BME280;23794;48.234;8.344;2024-02-26T03:33:58;92348.94;;;3.97;79.52
37972;BME280;23794;48.234;8.344;2024-02-26T03:36:25;92351.53;;;4.07;79.14
37972;BME280;23794;48.234;8.344;2024-02-26T03:38:51;92339.84;;;4.11;78.46
37972;BME280;23794;48.234;8.344;2024-02-26T03:41:18;92340.75;;;4.00;79.08
37972;BME280;23794;48.234;8.344;2024-02-26T03:43:45;92341.94;;;3.99;78.74
37972;BME280;23794;48.234;8.344;2024-02-26T03:46:11;92343.97;;;3.88;80.74
37972;BME280;23794;48.234;8.344;2024-02-26T03:48:41;92341.59;;;3.94;78.74
37972;BME280;23794;48.234;8.344;2024-02-26T03:51:10;92337.84;;;3.84;80.41
37972;BME280;23794;48.234;8.344;2024-02-26T03:53:37;92353.38;;;3.76;81.62
37972;BME280;23794;48.234;8.344;2024-02-26T03:56:05;92360.97;;;3.92;80.59
37972;BME280;23794;48.234;8.344;2024-02-26T03:58:32;92361.41;;;3.87;80.95
37972;BME280;23794;48.234;8.344;2024-02-26T04:01:00;92362.56;;;3.89;80.83
37972;BME280;23794;48.234;8.344;2024-02-26T04:03:27;92356.34;;;3.89;81.08
37972;BME280;23794;48.234;8.344;2024-02-26T04:05:54;92359.47;;;3.87;81.61
37972;BME280;23794;48.234;8.344;2024-02-26T04:08:20;92358.75;;;3.80;81.88
37972;BME280;23794;48.234;8.344;2024-02-26T04:10:47;92363.03;;;3.77;81.25
37972;BME280;23794;48.234;8.344;2024-02-26T04:13:14;92366.16;;;3.75;81.31
37972;BME280;23794;48.234;8.344;2024-02-26T04:15:41;92363.00;;;3.81;81.07
37972;BME280;23794;48.234;8.344;2024-02-26T04:18:07;92362.97;;;3.84;80.27
37972;BME280;23794;48.234;8.344;2024-02-26T04:20:34;92361.47;;;3.83;80.73
37972;BME280;23794;48.234;8.344;2024-02-26T04:23:02;92357.69;;;3.70;81.49
37972;BME280;23794;48.234;8.344;2024-02-26T04:25:29;92371.66;;;3.68;81.21
37972;BME280;23794;48.234;8.344;2024-02-26T04:27:56;92370.00;;;3.78;80.75
37972;BME280;23794;48.234;8.344;2024-02-26T04:30:22;92372.72;;;3.78;80.38
37972;BME280;23794;48.234;8.344;2024-02-26T04:32:49;92371.97;;;3.78;81.16
37972;BME280;23794;48.234;8.344;2024-02-26T04:35:16;92354.16;;;3.76;81.80
37972;BME280;23794;48.234;8.344;2024-02-26T04:37:43;92367.34;;;3.74;82.00
37972;BME280;23794;48.234;8.344;2024-02-26T04:40:10;92365.75;;;3.77;81.88
37972;BME280;23794;48.234;8.344;2024-02-26T04:42:37;92367.72;;;3.76;82.59
37972;BME280;23794;48.234;8.344;2024-02-26T04:45:04;92368.88;;;3.75;82.21
37972;BME280;23794;48.234;8.344;2024-02-26T04:47:31;92374.66;;;3.78;82.80
37972;BME280;23794;48.234;8.344;2024-02-26T04:49:58;92376.16;;;3.82;83.46
37972;BME280;23794;48.234;8.344;2024-02-26T04:52:25;92369.97;;;3.82;83.38
37972;BME280;23794;48.234;8.344;2024-02-26T04:54:52;92381.19;;;3.84;82.26
37972;BME280;23794;48.234;8.344;2024-02-26T04:57:18;92373.50;;;3.79;82.30
37972;BME280;23794;48.234;8.344;2024-02-26T04:59:45;92378.19;;;3.71;84.84
37972;BME280;23794;48.234;8.344;2024-02-26T05:02:13;92374.34;;;3.68;85.58
37972;BME280;23794;48.234;8.344;2024-02-26T05:04:40;92382.75;;;3.81;84.64
37972;BME280;23794;48.234;8.344;2024-02-26T05:07:06;92379.66;;;3.79;83.70
37972;BME280;23794;48.234;8.344;2024-02-26T05:09:34;92387.78;;;3.79;83.65
37972;BME280;23794;48.234;8.344;2024-02-26T05:12:00;92387.41;;;3.77;83.32
37972;BME280;23794;48.234;8.344;2024-02-26T05:14:27;92389.81;;;3.71;83.87
37972;BME280;23794;48.234;8.344;2024-02-26T05:16:54;92397.09;;;3.78;83.79
37972;BME280;23794;48.234;8.344;2024-02-26T05:19:20;92408.00;;;3.71;85.05
37972;BME280;23794;48.234;8.344;2024-02-26T05:21:47;92395.53;;;3.77;83.27
37972;BME280;23794;48.234;8.344;2024-02-26T05:24:16;92396.38;;;3.74;83.18
37972;BME280;23794;48.234;8.344;2024-02-26T05:26:45;92401.44;;;3.68;83.79
37972;BME280;23794;48.234;8.344;2024-02-26T05:29:12;92409.94;;;3.70;83.89
37972;BME280;23794;48.234;8.344;2024-02-26T05:31:38;92407.97;;;3.74;83.69
37972;BME280;23794;48.234;8.344;2024-02-26T05:34:05;92406.81;;;3.72;83.99
37972;BME280;23794;48.234;8.344;2024-02-26T05:36:32;92417.28;;;3.70;83.60
37972;BME280;23794;48.234;8.344;2024-02-26T05:39:01;92408.28;;;3.80;82.88
37972;BME280;23794;48.234;8.344;2024-02-26T05:41:27;92405.81;;;3.97;83.20
37972;BME280;23794;48.234;8.344;2024-02-26T05:43:54;92405.72;;;4.07;82.14
37972;BME280;23794;48.234;8.344;2024-02-26T05:46:22;92407.97;;;4.13;82.74
37972;BME280;23794;48.234;8.344;2024-02-26T05:48:51;92402.19;;;4.11;83.41
37972;BME280;23794;48.234;8.344;2024-02-26T05:51:18;92411.22;;;4.00;82.97
37972;BME280;23794;48.234;8.344;2024-02-26T05:53:45;92405.75;;;4.04;83.58
37972;BME280;23794;48.234;8.344;2024-02-26T05:56:13;92420.44;;;4.06;83.27
37972;BME280;23794;48.234;8.344;2024-02-26T05:58:40;92414.94;;;4.14;83.03
37972;BME280;23794;48.234;8.344;2024-02-26T06:01:06;92409.88;;;4.16;83.28
37972;BME280;23794;48.234;8.344;2024-02-26T06:03:33;92419.19;;;4.15;83.08
37972;BME280;23794;48.234;8.344;2024-02-26T06:06:00;92411.50;;;4.10;84.50
37972;BME280;23794;48.234;8.344;2024-02-26T06:08:27;92415.69;;;4.14;84.66
37972;BME280;23794;48.234;8.344;2024-02-26T06:10:53;92426.41;;;4.25;83.49
37972;BME280;23794;48.234;8.344;2024-02-26T06:13:20;92420.47;;;4.03;84.19
37972;BME280;23794;48.234;8.344;2024-02-26T06:15:47;92418.97;;;3.98;83.46
37972;BME280;23794;48.234;8.344;2024-02-26T06:18:13;92426.22;;;4.08;83.34
37972;BME280;23794;48.234;8.344;2024-02-26T06:20:40;92418.00;;;4.16;83.86
37972;BME280;23794;48.234;8.344;2024-02-26T06:23:07;92425.75;;;4.17;82.94
37972;BME280;23794;48.234;8.344;2024-02-26T06:25:34;92430.06;;;4.11;83.54
37972;BME280;23794;48.234;8.344;2024-02-26T06:28:00;92435.81;;;4.17;83.47
37972;BME280;23794;48.234;8.344;2024-02-26T06:30:27;92438.91;;;4.15;83.44
37972;BME280;23794;48.234;8.344;2024-02-26T06:32:53;92435.44;;;4.15;83.16
37972;BME280;23794;48.234;8.344;2024-02-26T06:35:20;92439.28;;;4.17;82.88
37972;BME280;23794;48.234;8.344;2024-02-26T06:37:47;92444.25;;;4.22;82.77
37972;BME280;23794;48.234;8.344;2024-02-26T06:40:13;92447.34;;;4.24;82.79
37972;BME280;23794;48.234;8.344;2024-02-26T06:42:40;92443.47;;;4.26;82.45
37972;BME280;23794;48.234;8.344;2024-02-26T06:45:07;92451.19;;;4.27;82.91
37972;BME280;23794;48.234;8.344;2024-02-26T06:47:34;92448.88;;;4.26;83.25
37972;BME280;23794;48.234;8.344;2024-02-26T06:50:01;92455.41;;;4.32;82.67
37972;BME280;23794;48.234;8.344;2024-02-26T06:52:28;92453.78;;;4.38;81.85
37972;BME280;23794;48.234;8.344;2024-02-26T06:54:54;92451.06;;;4.38;81.91
37972;BME280;23794;48.234;8.344;2024-02-26T06:57:21;92461.91;;;4.38;82.69
37972;BME280;23794;48.234;8.344;2024-02-26T06:59:48;92459.13;;;4.45;83.05
37972;BME280;23794;48.234;8.344;2024-02-26T07:02:15;92461.78;;;4.49;82.85
37972;BME280;23794;48.234;8.344;2024-02-26T07:04:43;92464.03;;;4.58;82.31
37972;BME280;23794;48.234;8.344;2024-02-26T07:07:10;92456.25;;;4.60;82.01
37972;BME280;23794;48.234;8.344;2024-02-26T07:09:37;92458.16;;;4.63;81.38
37972;BME280;23794;48.234;8.344;2024-02-26T07:12:04;92461.66;;;4.60;82.30
37972;BME280;23794;48.234;8.344;2024-02-26T07:14:31;92460.88;;;4.63;81.97
37972;BME280;23794;48.234;8.344;2024-02-26T07:16:59;92450.34;;;4.68;81.46
37972;BME280;23794;48.234;8.344;2024-02-26T07:19:25;92460.84;;;4.66;82.73
37972;BME280;23794;48.234;8.344;2024-02-26T07:21:52;92456.28;;;4.56;84.47
37972;BME280;23794;48.234;8.344;2024-02-26T07:24:19;92463.59;;;4.63;84.30
37972;BME280;23794;48.234;8.344;2024-02-26T07:26:45;92455.38;;;4.70;84.10
37972;BME280;23794;48.234;8.344;2024-02-26T07:29:12;92455.75;;;4.72;84.39
37972;BME280;23794;48.234;8.344;2024-02-26T07:31:39;92451.75;;;4.80;83.31
37972;BME280;23794;48.234;8.344;2024-02-26T07:34:05;92454.44;;;4.84;83.35
37972;BME280;23794;48.234;8.344;2024-02-26T07:36:32;92460.97;;;4.86;82.68
37972;BME280;23794;48.234;8.344;2024-02-26T07:38:59;92459.72;;;4.95;83.13
37972;BME280;23794;48.234;8.344;2024-02-26T07:41:26;92466.97;;;5.05;83.11
37972;BME280;23794;48.234;8.344;2024-02-26T07:43:53;92461.59;;;5.01;83.47
37972;BME280;23794;48.234;8.344;2024-02-26T07:46:19;92453.47;;;4.98;83.05
37972;BME280;23794;48.234;8.344;2024-02-26T07:48:46;92452.34;;;4.95;82.57
37972;BME280;23794;48.234;8.344;2024-02-26T07:51:13;92455.84;;;4.96;82.55
37972;BME280;23794;48.234;8.344;2024-02-26T07:53:43;92458.53;;;4.96;82.27
37972;BME280;23794;48.234;8.344;2024-02-26T07:56:10;92462.44;;;4.95;83.20
37972;BME280;23794;48.234;8.344;2024-02-26T07:58:37;92463.53;;;5.01;82.48
37972;BME280;23794;48.234;8.344;2024-02-26T08:01:03;92466.56;;;5.07;81.93
37972;BME280;23794;48.234;8.344;2024-02-26T08:03:30;92470.78;;;5.11;82.89
37972;BME280;23794;48.234;8.344;2024-02-26T08:05:57;92457.56;;;5.13;82.78
37972;BME280;23794;48.234;8.344;2024-02-26T08:08:24;92458.59;;;5.23;82.45
37972;BME280;23794;48.234;8.344;2024-02-26T08:10:51;92460.34;;;5.37;82.66
37972;BME280;23794;48.234;8.344;2024-02-26T08:13:18;92463.56;;;5.56;82.71
37972;BME280;23794;48.234;8.344;2024-02-26T08:15:44;92465.41;;;5.62;83.21
37972;BME280;23794;48.234;8.344;2024-02-26T08:18:11;92465.75;;;5.64;83.69
37972;BME280;23794;48.234;8.344;2024-02-26T08:20:38;92458.03;;;5.87;80.58
37972;BME280;23794;48.234;8.344;2024-02-26T08:23:05;92464.06;;;5.98;78.92
37972;BME280;23794;48.234;8.344;2024-02-26T08:25:31;92462.69;;;6.10;78.33
37972;BME280;23794;48.234;8.344;2024-02-26T08:27:58;92457.38;;;6.26;77.60
37972;BME280;23794;48.234;8.344;2024-02-26T08:30:25;92462.97;;;6.39;78.49
37972;BME280;23794;48.234;8.344;2024-02-26T08:32:52;92465.75;;;6.56;78.73
37972;BME280;23794;48.234;8.344;2024-02-26T08:35:19;92472.75;;;6.77;78.53
37972;BME280;23794;48.234;8.344;2024-02-26T08:37:47;92474.91;;;7.06;78.27
37972;BME280;23794;48.234;8.344;2024-02-26T08:40:14;92476.94;;;7.02;77.92
37972;BME280;23794;48.234;8.344;2024-02-26T08:42:41;92477.09;;;6.95;77.55
37972;BME280;23794;48.234;8.344;2024-02-26T08:45:08;92480.91;;;6.77;77.54
37972;BME280;23794;48.234;8.344;2024-02-26T08:47:35;92479.81;;;6.95;77.15
37972;BME280;23794;48.234;8.344;2024-02-26T08:50:03;92487.34;;;7.07;75.59
37972;BME280;23794;48.234;8.344;2024-02-26T08:52:30;92478.88;;;7.21;75.46
37972;BME280;23794;48.234;8.344;2024-02-26T08:54:57;92471.56;;;7.35;73.88
37972;BME280;23794;48.234;8.344;2024-02-26T08:57:24;92464.78;;;7.43;73.09
37972;BME280;23794;48.234;8.344;2024-02-26T08:59:53;92470.44;;;7.52;72.81
37972;BME280;23794;48.234;8.344;2024-02-26T09:02:20;92467.91;;;7.62;72.18
37972;BME280;23794;48.234;8.344;2024-02-26T09:04:46;92465.69;;;7.73;72.42
37972;BME280;23794;48.234;8.344;2024-02-26T09:07:13;92466.06;;;7.75;72.12
37972;BME280;23794;48.234;8.344;2024-02-26T09:09:40;92473.03;;;7.76;71.24
37972;BME280;23794;48.234;8.344;2024-02-26T09:12:07;92466.91;;;7.72;71.44
37972;BME280;23794;48.234;8.344;2024-02-26T09:14:34;92467.06;;;7.65;71.07
37972;BME280;23794;48.234;8.344;2024-02-26T09:17:00;92460.19;;;7.60;70.83
37972;BME280;23794;48.234;8.344;2024-02-26T09:19:27;92464.09;;;7.59;72.10
37972;BME280;23794;48.234;8.344;2024-02-26T09:21:56;92467.06;;;7.65;73.76
37972;BME280;23794;48.234;8.344;2024-02-26T09:24:25;92469.03;;;7.64;74.20
37972;BME280;23794;48.234;8.344;2024-02-26T09:26:52;92464.75;;;7.63;73.93
37972;BME280;23794;48.234;8.344;2024-02-26T09:29:18;92468.59;;;7.66;74.80
37972;BME280;23794;48.234;8.344;2024-02-26T09:31:45;92479.94;;;7.64;75.57
37972;BME280;23794;48.234;8.344;2024-02-26T09:34:14;92479.66;;;7.59;75.09
37972;BME280;23794;48.234;8.344;2024-02-26T09:36:41;92483.91;;;7.60;75.35
37972;BME280;23794;48.234;8.344;2024-02-26T09:39:08;92482.06;;;7.56;75.20
37972;BME280;23794;48.234;8.344;2024-02-26T09:41:38;92490.22;;;7.56;75.69
37972;BME280;23794;48.234;8.344;2024-02-26T09:44:05;92490.75;;;7.68;75.45
37972;BME280;23794;48.234;8.344;2024-02-26T09:46:32;92489.22;;;7.67;74.73
37972;BME280;23794;48.234;8.344;2024-02-26T09:48:59;92486.31;;;7.74;74.29
37972;BME280;23794;48.234;8.344;2024-02-26T09:51:25;92489.69;;;7.98;73.91
37972;BME280;23794;48.234;8.344;2024-02-26T09:53:53;92500.81;;;8.20;73.96
37972;BME280;23794;48.234;8.344;2024-02-26T09:56:21;92508.66;;;8.35;74.13
37972;BME280;23794;48.234;8.344;2024-02-26T09:58:50;92507.53;;;8.32;73.86
37972;BME280;23794;48.234;8.344;2024-02-26T10:01:20;92511.09;;;8.46;72.70
37972;BME280;23794;48.234;8.344;2024-02-26T10:03:51;92503.69;;;8.46;73.98
37972;BME280;23794;48.234;8.344;2024-02-26T10:06:19;92508.44;;;8.59;73.41
37972;BME280;23794;48.234;8.344;2024-02-26T10:08:46;92503.50;;;8.70;73.07
37972;BME280;23794;48.234;8.344;2024-02-26T10:11:14;92504.56;;;8.89;72.32
37972;BME280;23794;48.234;8.344;2024-02-26T10:13:41;92500.66;;;9.03;71.15
37972;BME280;23794;48.234;8.344;2024-02-26T10:16:12;92503.97;;;9.24;71.40
37972;BME280;23794;48.234;8.344;2024-02-26T10:18:51;92505.69;;;9.47;70.59
37972;BME280;23794;48.234;8.344;2024-02-26T10:21:25;92504.63;;;9.44;70.71
37972;BME280;23794;48.234;8.344;2024-02-26T10:23:52;92512.81;;;9.44;69.90
37972;BME280;23794;48.234;8.344;2024-02-26T10:26:19;92510.19;;;9.41;69.94
37972;BME280;23794;48.234;8.344;2024-02-26T10:28:46;92525.50;;;9.22;69.90
37972;BME280;23794;48.234;8.344;2024-02-26T10:31:18;92532.81;;;9.12;69.89
37972;BME280;23794;48.234;8.344;2024-02-26T10:33:45;92537.72;;;8.88;70.19
37972;BME280;23794;48.234;8.344;2024-02-26T10:36:12;92536.84;;;8.61;70.96
37972;BME280;23794;48.234;8.344;2024-02-26T10:38:39;92539.59;;;8.45;72.76
37972;BME280;23794;48.234;8.344;2024-02-26T10:41:06;92543.09;;;8.62;72.66
37972;BME280;23794;48.234;8.344;2024-02-26T10:43:33;92541.94;;;8.59;71.71
37972;BME280;23794;48.234;8.344;2024-02-26T10:46:00;92546.66;;;8.59;71.75
37972;BME280;23794;48.234;8.344;2024-02-26T10:48:26;92552.63;;;8.70;72.02
37972;BME280;23794;48.234;8.344;2024-02-26T10:50:53;92558.75;;;8.74;71.89
37972;BME280;23794;48.234;8.344;2024-02-26T10:53:23;92563.38;;;8.77;71.12
37972;BME280;23794;48.234;8.344;2024-02-26T10:55:57;92567.44;;;8.86;70.89
37972;BME280;23794;48.234;8.344;2024-02-26T10:58:24;92556.78;;;8.75;71.24
37972;BME280;23794;48.234;8.344;2024-02-26T11:00:52;92556.03;;;8.74;69.28
37972;BME280;23794;48.234;8.344;2024-02-26T11:03:20;92550.22;;;8.56;69.76
37972;BME280;23794;48.234;8.344;2024-02-26T11:05:49;92554.34;;;8.47;70.78
37972;BME280;23794;48.234;8.344;2024-02-26T11:08:18;92552.63;;;8.54;70.42
37972;BME280;23794;48.234;8.344;2024-02-26T11:10:50;92558.75;;;8.58;70.19
37972;BME280;23794;48.234;8.344;2024-02-26T11:13:19;92571.91;;;8.46;70.53
37972;BME280;23794;48.234;8.344;2024-02-26T11:15:48;92578.41;;;8.52;71.95
37972;BME280;23794;48.234;8.344;2024-02-26T11:18:16;92578.81;;;8.51;71.81
37972;BME280;23794;48.234;8.344;2024-02-26T11:20:46;92576.34;;;8.57;72.11
37972;BME280;23794;48.234;8.344;2024-02-26T11:23:14;92577.19;;;8.37;73.13
37972;BME280;23794;48.234;8.344;2024-02-26T11:25:42;92571.03;;;8.33;72.79
37972;BME280;23794;48.234;8.344;2024-02-26T11:28:12;92582.41;;;8.31;73.08
37972;BME280;23794;48.234;8.344;2024-02-26T11:30:45;92566.78;;;8.48;73.25
37972;BME280;23794;48.234;8.344;2024-02-26T11:33:13;92573.34;;;8.67;72.75
37972;BME280;23794;48.234;8.344;2024-02-26T11:35:41;92577.06;;;8.90;72.06
37972;BME280;23794;48.234;8.344;2024-02-26T11:38:07;92579.75;;;8.77;71.10
37972;BME280;23794;48.234;8.344;2024-02-26T11:40:38;92575.63;;;8.86;71.48
37972;BME280;23794;48.234;8.344;2024-02-26T11:43:08;92581.66;;;8.93;71.95
37972;BME280;23794;48.234;8.344;2024-02-26T11:48:22;92577.81;;;9.37;70.71
37972;BME280;23794;48.234;8.344;2024-02-26T11:53:26;92561.94;;;9.61;70.14
37972;BME280;23794;48.234;8.344;2024-02-26T11:58:41;92560.97;;;10.19;68.42
37972;BME280;23794;48.234;8.344;2024-02-26T12:01:43;92560.00;;;10.26;66.39
37972;BME280;23794;48.234;8.344;2024-02-26T12:04:24;92564.78;;;10.48;66.20
37972;BME280;23794;48.234;8.344;2024-02-26T12:06:57;92556.94;;;10.85;65.50
37972;BME280;23794;48.234;8.344;2024-02-26T12:09:40;92552.88;;;11.02;62.66
37972;BME280;23794;48.234;8.344;2024-02-26T12:12:09;92557.63;;;11.11;62.89
37972;BME280;23794;48.234;8.344;2024-02-26T12:14:39;92554.34;;;11.39;61.63
37972;BME280;23794;48.234;8.344;2024-02-26T12:17:24;92551.78;;;11.22;60.78
37972;BME280;23794;48.234;8.344;2024-02-26T12:19:52;92550.59;;;10.75;63.07
37972;BME280;23794;48.234;8.344;2024-02-26T12:22:20;92551.53;;;10.59;61.37
37972;BME280;23794;48.234;8.344;2024-02-26T12:24:47;92549.47;;;10.37;61.70
37972;BME280;23794;48.234;8.344;2024-02-26T12:27:13;92556.28;;;10.33;62.00
37972;BME280;23794;48.234;8.344;2024-02-26T12:29:41;92556.28;;;10.33;61.12
37972;BME280;23794;48.234;8.344;2024-02-26T12:32:08;92557.72;;;10.24;62.29
37972;BME280;23794;48.234;8.344;2024-02-26T12:34:35;92562.06;;;10.35;62.57
37972;BME280;23794;48.234;8.344;2024-02-26T12:37:02;92556.25;;;10.46;62.42
37972;BME280;23794;48.234;8.344;2024-02-26T12:39:29;92556.47;;;10.25;62.56
37972;BME280;23794;48.234;8.344;2024-02-26T12:41:57;92551.34;;;10.40;62.23
37972;BME280;23794;48.234;8.344;2024-02-26T12:44:26;92557.53;;;10.67;62.67
37972;BME280;23794;48.234;8.344;2024-02-26T12:47:03;92558.97;;;10.46;60.99
37972;BME280;23794;48.234;8.344;2024-02-26T12:49:30;92558.78;;;10.27;61.85
37972;BME280;23794;48.234;8.344;2024-02-26T12:51:58;92560.34;;;10.15;61.33
37972;BME280;23794;48.234;8.344;2024-02-26T12:54:29;92569.75;;;10.14;61.01
37972;BME280;23794;48.234;8.344;2024-02-26T12:56:59;92569.09;;;9.97;61.14
37972;BME280;23794;48.234;8.344;2024-02-26T12:59:27;92572.34;;;10.05;62.10
37972;BME280;23794;48.234;8.344;2024-02-26T13:01:54;92571.56;;;10.43;62.56
37972;BME280;23794;48.234;8.344;2024-02-26T13:04:21;92570.34;;;10.70;62.19
37972;BME280;23794;48.234;8.344;2024-02-26T13:06:49;92573.25;;;10.88;58.83
37972;BME280;23794;48.234;8.344;2024-02-26T13:09:16;92575.91;;;10.79;59.44
37972;BME280;23794;48.234;8.344;2024-02-26T13:11:45;92578.41;;;10.86;59.71
37972;BME280;23794;48.234;8.344;2024-02-26T13:14:21;92576.00;;;10.76;57.53
37972;BME280;23794;48.234;8.344;2024-02-26T13:16:57;92575.81;;;10.70;58.86
37972;BME280;23794;48.234;8.344;2024-02-26T13:19:24;92572.88;;;10.64;57.39